createdAt,value
2019-05-09T00:00:33.727Z,2.90
2019-05-09T00:02:39.571Z,2.20
2019-05-09T00:04:44.966Z,2.00
2019-05-09T00:06:50.458Z,2.22
2019-05-09T00:08:55.914Z,2.22
2019-05-09T00:11:03.482Z,2.08
2019-05-09T00:13:08.443Z,2.10
2019-05-09T00:15:14.047Z,1.55
2019-05-09T00:17:19.460Z,1.90
2019-05-09T00:19:24.908Z,2.05
2019-05-09T00:21:37.187Z,1.87
2019-05-09T00:23:43.705Z,2.55
2019-05-09T00:25:49.475Z,2.67
2019-05-09T00:27:54.867Z,2.20
2019-05-09T00:30:00.587Z,2.35
2019-05-09T00:32:31.090Z,2.60
2019-05-09T00:34:55.481Z,2.47
2019-05-09T00:37:02.967Z,2.15
2019-05-09T00:39:08.003Z,2.62
2019-05-09T00:41:14.081Z,1.92
2019-05-09T00:43:21.242Z,2.77
2019-05-09T00:45:37.426Z,2.65
2019-05-09T00:47:43.396Z,2.17
2019-05-09T00:49:49.046Z,2.17
2019-05-09T00:51:54.453Z,2.40
2019-05-09T00:53:59.826Z,2.80
2019-05-09T00:56:05.267Z,2.20
2019-05-09T00:58:10.648Z,3.08
2019-05-09T01:00:18.822Z,2.22
2019-05-09T01:02:24.250Z,2.72
2019-05-09T01:04:29.630Z,1.95
2019-05-09T01:06:35.055Z,2.55
2019-05-09T01:08:40.463Z,2.58
2019-05-09T01:10:45.855Z,2.00
2019-05-09T01:12:51.352Z,2.35
2019-05-09T01:14:56.784Z,2.20
2019-05-09T01:17:04.149Z,2.22
2019-05-09T01:19:09.301Z,2.00
2019-05-09T01:21:14.787Z,1.82
2019-05-09T01:23:20.181Z,2.35
2019-05-09T01:25:25.603Z,2.50
2019-05-09T01:27:30.986Z,2.65
2019-05-09T01:29:36.374Z,2.33
2019-05-09T01:31:43.618Z,2.37
2019-05-09T01:34:07.265Z,1.72
2019-05-09T01:36:14.452Z,2.70
2019-05-09T01:38:19.886Z,2.40
2019-05-09T01:40:25.274Z,2.55
2019-05-09T01:42:30.694Z,2.42
2019-05-09T01:44:36.195Z,2.77
2019-05-09T01:46:43.486Z,2.22
2019-05-09T01:48:48.758Z,2.33
2019-05-09T01:50:54.134Z,2.35
2019-05-09T01:52:59.535Z,1.80
2019-05-09T01:55:04.951Z,2.30
2019-05-09T01:57:10.398Z,2.17
2019-05-09T01:59:16.013Z,2.85
2019-05-09T02:01:23.821Z,2.30
2019-05-09T02:03:28.574Z,2.50
2019-05-09T02:05:34.122Z,2.70
2019-05-09T02:07:39.521Z,2.42
2019-05-09T02:09:44.915Z,2.42
2019-05-09T02:11:50.306Z,2.10
2019-05-09T02:13:55.795Z,2.37
2019-05-09T02:16:33.789Z,1.82
2019-05-09T02:18:46.848Z,2.10
2019-05-09T02:20:53.259Z,2.65
2019-05-09T02:22:58.807Z,1.95
2019-05-09T02:25:05.655Z,2.40
2019-05-09T02:27:13.132Z,1.95
2019-05-09T02:29:18.154Z,1.80
2019-05-09T02:31:24.406Z,2.37
2019-05-09T02:33:30.199Z,2.40
2019-05-09T02:35:41.515Z,2.47
2019-05-09T02:37:42.672Z,2.20
2019-05-09T02:39:49.095Z,2.30
2019-05-09T02:42:07.643Z,2.40
2019-05-09T02:44:01.843Z,2.22
2019-05-09T02:46:29.113Z,2.05
2019-05-09T02:48:33.373Z,2.17
2019-05-09T02:50:38.833Z,2.52
2019-05-09T02:52:44.257Z,2.00
2019-05-09T02:54:50.286Z,2.50
2019-05-09T02:56:58.040Z,2.00
2019-05-09T02:59:13.232Z,2.12
2019-05-09T03:01:29.415Z,2.40
2019-05-09T03:03:39.332Z,1.92
2019-05-09T03:05:44.570Z,2.15
2019-05-09T03:07:50.355Z,2.05
2019-05-09T03:09:58.234Z,2.50
2019-05-09T03:12:21.322Z,2.77
2019-05-09T03:14:09.986Z,2.25
2019-05-09T03:16:19.128Z,3.02
2019-05-09T03:18:23.626Z,2.42
2019-05-09T03:20:50.917Z,2.50
2019-05-09T03:22:58.285Z,2.37
2019-05-09T03:25:03.523Z,2.30
2019-05-09T03:27:14.903Z,2.58
2019-05-09T03:29:29.229Z,1.90
2019-05-09T03:31:34.391Z,2.67
2019-05-09T03:33:41.154Z,2.80
2019-05-09T03:35:48.178Z,2.70
2019-05-09T03:38:07.851Z,2.90
2019-05-09T03:40:18.040Z,2.83
2019-05-09T03:42:38.149Z,2.50
2019-05-09T03:44:30.669Z,2.72
2019-05-09T03:46:44.010Z,2.42
2019-05-09T03:48:51.880Z,2.50
2019-05-09T03:50:57.701Z,2.80
2019-05-09T03:53:09.963Z,2.15
2019-05-09T03:55:19.767Z,3.08
2019-05-09T03:57:30.461Z,3.08
2019-05-09T03:59:37.870Z,3.60
2019-05-09T04:01:46.432Z,3.40
2019-05-09T04:03:50.203Z,3.08
2019-05-09T04:06:02.434Z,4.12
2019-05-09T04:08:18.530Z,3.47
2019-05-09T04:10:24.250Z,2.75
2019-05-09T04:12:29.650Z,2.55
2019-05-09T04:14:37.533Z,2.77
2019-05-09T04:16:43.096Z,2.70
2019-05-09T04:18:49.308Z,2.60
2019-05-09T04:20:54.788Z,2.55
2019-05-09T04:23:00.190Z,2.42
2019-05-09T04:25:07.901Z,3.27
2019-05-09T04:27:20.514Z,3.87
2019-05-09T04:29:25.900Z,4.03
2019-05-09T04:31:31.323Z,2.87
2019-05-09T04:33:39.064Z,3.37
2019-05-09T04:35:44.630Z,3.37
2019-05-09T04:37:50.034Z,3.25
2019-05-09T04:39:59.580Z,2.92
2019-05-09T04:42:05.377Z,3.95
2019-05-09T04:44:17.225Z,3.60
2019-05-09T04:46:24.167Z,3.90
2019-05-09T04:48:30.842Z,3.40
2019-05-09T04:50:37.646Z,4.60
2019-05-09T04:52:43.225Z,4.00
2019-05-09T04:54:48.677Z,3.70
2019-05-09T04:56:54.196Z,4.42
2019-05-09T04:58:59.595Z,4.60
2019-05-09T05:01:28.176Z,5.28
2019-05-09T05:03:34.603Z,4.08
2019-05-09T05:05:40.225Z,4.25
2019-05-09T05:07:47.933Z,4.03
2019-05-09T05:09:52.940Z,4.22
2019-05-09T05:11:58.625Z,4.42
2019-05-09T05:14:04.191Z,4.20
2019-05-09T05:16:09.604Z,4.67
2019-05-09T05:18:15.031Z,5.40
2019-05-09T05:20:23.415Z,3.62
2019-05-09T05:22:43.423Z,5.35
2019-05-09T05:24:55.925Z,4.72
2019-05-09T05:27:02.101Z,5.22
2019-05-09T05:29:08.430Z,6.60
2019-05-09T05:31:14.207Z,7.03
2019-05-09T05:33:40.631Z,7.22
2019-05-09T05:35:50.034Z,7.03
2019-05-09T05:37:57.951Z,6.70
2019-05-09T05:40:02.713Z,6.22
2019-05-09T05:42:08.819Z,6.85
2019-05-09T05:44:14.222Z,5.65
2019-05-09T05:46:50.989Z,6.50
2019-05-09T05:48:57.766Z,6.00
2019-05-09T05:51:03.334Z,5.83
2019-05-09T05:53:08.798Z,6.10
2019-05-09T05:55:14.282Z,5.62
2019-05-09T05:57:19.973Z,7.08
2019-05-09T05:59:25.417Z,6.00
2019-05-09T06:01:30.882Z,6.20
2019-05-09T06:03:37.812Z,5.05
2019-05-09T06:05:43.299Z,5.78
2019-05-09T06:07:49.011Z,4.50
2019-05-09T06:09:57.399Z,5.37
2019-05-09T06:12:02.979Z,5.87
2019-05-09T06:14:11.559Z,5.70
2019-05-09T06:16:18.222Z,5.95
2019-05-09T06:18:22.903Z,5.67
2019-05-09T06:20:28.388Z,6.03
2019-05-09T06:22:34.487Z,6.62
2019-05-09T06:24:39.930Z,4.55
2019-05-09T06:26:47.854Z,5.45
2019-05-09T06:28:53.535Z,5.45
2019-05-09T06:30:59.786Z,3.90
2019-05-09T06:33:05.700Z,3.90
2019-05-09T06:35:17.572Z,5.92
2019-05-09T06:37:23.006Z,6.35
2019-05-09T06:39:29.470Z,6.15
2019-05-09T06:41:37.808Z,6.90
2019-05-09T06:43:45.002Z,5.45
2019-05-09T06:46:09.142Z,5.37
2019-05-09T06:48:17.954Z,5.08
2019-05-09T06:50:23.136Z,6.17
2019-05-09T06:52:29.283Z,5.40
2019-05-09T06:54:35.560Z,5.50
2019-05-09T06:56:42.113Z,5.17
2019-05-09T06:58:48.204Z,5.12
2019-05-09T07:01:00.543Z,4.42
2019-05-09T07:03:12.011Z,6.05
2019-05-09T07:05:35.138Z,5.42
2019-05-09T07:07:48.159Z,5.40
2019-05-09T07:09:59.367Z,5.67
2019-05-09T07:12:07.937Z,5.33
2019-05-09T07:14:37.890Z,5.12
2019-05-09T07:16:42.408Z,5.25
2019-05-09T07:18:48.546Z,5.45
2019-05-09T07:20:57.650Z,4.75
2019-05-09T07:23:03.859Z,5.92
2019-05-09T07:25:22.007Z,5.53
2019-05-09T07:27:29.262Z,4.50
2019-05-09T07:29:37.593Z,4.80
2019-05-09T07:31:48.947Z,5.12
2019-05-09T07:34:18.421Z,4.37
2019-05-09T07:36:24.774Z,4.20
2019-05-09T07:38:33.635Z,4.90
2019-05-09T07:40:39.155Z,4.87
2019-05-09T07:42:47.937Z,4.20
2019-05-09T07:44:54.204Z,4.60
2019-05-09T07:47:03.521Z,4.33
2019-05-09T07:49:12.771Z,4.50
2019-05-09T07:51:19.340Z,4.85
2019-05-09T07:53:25.356Z,4.45
2019-05-09T07:55:31.599Z,4.10
2019-05-09T07:57:46.968Z,3.50
2019-05-09T07:59:47.866Z,4.75
2019-05-09T08:01:54.159Z,4.90
2019-05-09T08:04:00.409Z,4.05
2019-05-09T08:06:08.421Z,5.35
2019-05-09T08:08:18.606Z,4.35
2019-05-09T08:10:24.498Z,3.60
2019-05-09T08:12:31.063Z,4.83
2019-05-09T08:14:38.339Z,4.03
2019-05-09T08:16:44.035Z,3.87
2019-05-09T08:18:50.152Z,3.45
2019-05-09T08:20:57.767Z,3.27
2019-05-09T08:23:08.636Z,4.08
2019-05-09T13:50:38.412Z,1.37
2019-05-09T13:55:08.489Z,1.37
2019-05-09T13:57:27.962Z,0.95
2019-05-09T14:52:55.601Z,0.60
2019-05-09T17:44:10.457Z,2.10
2019-05-09T17:46:16.050Z,1.00
2019-05-09T17:48:21.850Z,1.12
2019-05-09T17:50:28.487Z,1.20
2019-05-09T17:52:34.552Z,2.85
2019-05-09T17:54:40.274Z,1.57
2019-05-09T17:56:48.243Z,4.45
2019-05-09T17:58:53.538Z,4.37
2019-05-09T18:00:59.325Z,2.15
2019-05-09T18:03:05.283Z,2.42
2019-05-09T18:05:10.790Z,1.67
2019-05-09T18:07:18.077Z,1.65
2019-05-09T18:09:23.263Z,2.25
2019-05-09T18:11:28.642Z,1.07
2019-05-09T18:13:34.466Z,1.10
2019-05-09T18:15:40.480Z,1.60
2019-05-09T18:17:47.868Z,1.40
2019-05-09T18:19:53.978Z,1.35
2019-05-09T18:22:08.189Z,1.10
2019-05-09T18:24:13.893Z,1.62
2019-05-09T18:26:19.616Z,0.98
2019-05-09T18:28:25.105Z,1.17
2019-05-09T18:30:31.366Z,1.10
2019-05-09T18:32:44.827Z,1.02
2019-05-09T18:34:52.497Z,0.93
2019-05-09T18:36:58.777Z,1.30
2019-05-09T18:39:07.572Z,1.20
2019-05-09T18:41:12.496Z,1.32
2019-05-09T18:43:18.105Z,1.15
2019-05-09T18:45:28.306Z,1.25
2019-05-09T18:47:33.927Z,1.67
2019-05-09T18:49:39.403Z,2.45
2019-05-09T18:51:44.803Z,1.98
2019-05-09T18:53:50.232Z,1.70
2019-05-09T18:55:55.682Z,1.60
2019-05-09T18:58:01.124Z,1.42
2019-05-09T19:00:07.591Z,1.30
2019-05-09T19:02:13.107Z,1.15
2019-05-09T19:04:18.591Z,1.47
2019-05-09T19:06:23.998Z,1.80
2019-05-09T19:08:29.490Z,1.50
2019-05-09T19:10:34.962Z,1.30
2019-05-09T19:12:40.913Z,1.55
2019-05-09T19:14:47.251Z,1.10
2019-05-09T19:17:25.027Z,1.47
2019-05-09T19:32:40.020Z,1.87
2019-05-09T19:34:45.540Z,2.00
2019-05-09T19:36:51.048Z,2.00
2019-05-09T19:38:57.155Z,2.65
2019-05-09T19:41:02.583Z,1.40
2019-05-09T19:43:08.063Z,1.90
2019-05-09T19:45:14.930Z,1.85
2019-05-09T19:47:20.894Z,1.50
2019-05-09T19:49:27.149Z,1.05
2019-05-09T19:51:33.047Z,1.25
2019-05-09T19:53:38.470Z,1.32
2019-05-09T19:55:44.259Z,1.47
2019-05-09T19:57:52.151Z,1.27
2019-05-09T19:59:58.103Z,1.00
2019-05-09T20:02:03.652Z,1.20
2019-05-09T20:04:13.557Z,1.40
2019-05-09T20:06:19.882Z,1.70
2019-05-09T20:08:25.326Z,1.32
2019-05-09T20:10:48.303Z,1.35
2019-05-09T20:13:18.686Z,1.10
2019-05-09T20:15:24.942Z,1.30
2019-05-09T20:17:30.487Z,0.95
2019-05-09T20:19:36.770Z,1.15
2019-05-09T20:21:42.519Z,1.15
2019-05-09T20:23:48.022Z,1.20
2019-05-09T20:25:54.975Z,1.15
2019-05-09T20:28:00.434Z,1.45
2019-05-09T20:30:06.241Z,1.27
2019-05-09T20:32:13.070Z,1.20
2019-05-09T20:34:19.150Z,1.50
2019-05-09T20:36:25.379Z,1.37
2019-05-09T20:38:32.074Z,2.00
2019-05-09T20:40:38.131Z,1.80
2019-05-09T20:42:44.355Z,1.30
2019-05-09T20:44:50.135Z,1.50
2019-05-09T20:46:55.814Z,1.30
2019-05-09T20:49:01.745Z,1.37
2019-05-09T20:51:07.766Z,1.30
2019-05-09T20:53:17.778Z,2.00
2019-05-09T20:55:24.038Z,1.37
2019-05-09T20:57:29.666Z,1.32
2019-05-09T20:59:35.562Z,1.10
2019-05-09T21:01:41.283Z,1.07
2019-05-09T21:03:59.595Z,1.10
2019-05-09T21:05:54.377Z,1.75
2019-05-09T21:08:00.182Z,1.50
2019-05-09T21:10:06.495Z,1.50
2019-05-09T21:12:12.322Z,1.57
2019-05-09T21:14:18.010Z,1.65
2019-05-09T21:16:26.067Z,1.50
2019-05-09T21:18:31.791Z,1.22
2019-05-09T21:20:37.617Z,1.45
2019-05-09T21:22:43.390Z,1.40
2019-05-09T21:24:49.058Z,1.27
2019-05-09T21:26:54.850Z,1.72
2019-05-09T21:29:00.447Z,1.65
2019-05-09T21:31:06.697Z,2.10
2019-05-09T21:33:12.384Z,1.85
2019-05-09T21:35:17.779Z,2.10
2019-05-09T21:37:23.466Z,2.35
2019-05-09T21:39:32.204Z,1.85
2019-05-09T21:41:37.783Z,1.85
2019-05-09T21:43:43.423Z,2.00
2019-05-09T21:45:48.927Z,1.60
2019-05-09T21:47:54.410Z,2.22
2019-05-09T21:50:00.206Z,1.75
2019-05-09T21:52:05.720Z,1.85
2019-05-09T21:54:11.158Z,3.08
2019-05-09T21:56:17.234Z,2.27
2019-05-09T21:58:22.659Z,2.47
2019-05-09T22:00:34.395Z,2.33
2019-05-09T22:02:39.980Z,1.90
2019-05-09T22:04:45.904Z,2.10
2019-05-09T22:06:51.692Z,2.50
2019-05-09T22:08:57.349Z,2.05
2019-05-09T22:11:02.747Z,1.95
2019-05-09T22:13:08.530Z,1.92
2019-05-09T22:15:14.195Z,2.15
2019-05-09T22:17:29.494Z,1.98
2019-05-09T22:19:35.339Z,2.47
2019-05-09T22:21:40.755Z,2.08
2019-05-09T22:23:56.038Z,2.20
2019-05-09T22:25:53.508Z,2.50
2019-05-09T22:27:58.974Z,2.70
2019-05-09T22:30:07.007Z,2.50
2019-05-09T22:32:12.439Z,1.98
2019-05-09T22:34:17.834Z,2.70
2019-05-09T22:36:23.239Z,2.30
2019-05-09T22:38:28.702Z,2.20
2019-05-09T22:40:34.106Z,2.08
2019-05-09T22:42:39.515Z,2.17
2019-05-09T22:44:44.919Z,2.70
2019-05-09T22:46:50.340Z,1.82
2019-05-09T22:48:55.711Z,2.70
2019-05-09T22:51:01.099Z,3.35
2019-05-09T22:53:07.194Z,2.87
2019-05-09T22:55:12.887Z,2.52
2019-05-09T22:57:18.287Z,2.77
2019-05-09T22:59:23.762Z,2.75
2019-05-09T23:01:29.170Z,2.70
2019-05-09T23:03:34.583Z,3.42
2019-05-09T23:05:40.151Z,3.75
2019-05-09T23:07:46.011Z,2.90
2019-05-09T23:09:51.418Z,3.00
2019-05-09T23:11:56.815Z,4.87
2019-05-09T23:14:02.235Z,4.55
2019-05-09T23:16:07.610Z,3.08
2019-05-09T23:18:12.991Z,3.90
2019-05-09T23:20:46.291Z,2.47
2019-05-09T23:22:51.698Z,2.83
2019-05-09T23:24:57.204Z,3.08
2019-05-09T23:27:02.663Z,2.77
2019-05-09T23:29:08.130Z,3.47
2019-05-09T23:31:17.463Z,3.27
2019-05-09T23:33:24.064Z,2.55
2019-05-09T23:35:29.455Z,2.40
2019-05-09T23:37:34.846Z,2.12
2019-05-09T23:39:42.938Z,2.12
2019-05-09T23:41:48.443Z,2.20
2019-05-09T23:43:54.455Z,2.60
2019-05-09T23:45:59.856Z,4.40
2019-05-09T23:48:05.262Z,4.75
2019-05-09T23:50:10.735Z,3.35
2019-05-09T23:52:16.115Z,3.37
2019-05-09T23:54:48.341Z,3.52
2019-05-09T23:57:05.130Z,4.58
2019-05-09T23:59:28.064Z,4.00
